createdAt,value
2018-09-06T00:00:11.294Z,19.60
2018-09-06T00:02:39.693Z,19.70
2018-09-06T00:05:08.129Z,19.70
2018-09-06T00:07:36.578Z,19.70
2018-09-06T00:10:05.018Z,19.70
2018-09-06T00:12:33.465Z,19.70
2018-09-06T00:15:01.878Z,19.60
2018-09-06T00:17:30.231Z,19.50
2018-09-06T00:19:58.729Z,19.50
2018-09-06T00:22:27.145Z,19.50
2018-09-06T00:24:55.553Z,19.60
2018-09-06T00:27:23.925Z,19.60
2018-09-06T00:29:52.299Z,19.50
2018-09-06T00:32:20.898Z,19.50
2018-09-06T00:34:49.365Z,19.40
2018-09-06T00:37:17.750Z,19.50
2018-09-06T00:39:46.110Z,19.50
2018-09-06T00:42:14.542Z,19.50
2018-09-06T00:44:42.976Z,19.50
2018-09-06T00:47:12.178Z,19.50
2018-09-06T00:49:40.634Z,19.50
2018-09-06T00:52:09.165Z,19.50
2018-09-06T00:54:37.528Z,19.40
2018-09-06T00:57:06.022Z,19.40
2018-09-06T00:59:34.434Z,19.40
2018-09-06T01:02:02.809Z,19.40
2018-09-06T01:04:31.343Z,19.50
2018-09-06T01:06:59.734Z,19.50
2018-09-06T01:09:28.113Z,19.50
2018-09-06T01:11:56.472Z,19.40
2018-09-06T01:14:24.946Z,19.40
2018-09-06T01:16:53.389Z,19.40
2018-09-06T01:19:21.748Z,19.40
2018-09-06T01:21:50.188Z,19.40
2018-09-06T01:24:18.548Z,19.40
2018-09-06T01:26:46.913Z,19.40
2018-09-06T01:29:15.313Z,19.30
2018-09-06T01:31:43.672Z,19.30
2018-09-06T01:34:12.126Z,19.30
2018-09-06T01:36:47.459Z,19.30
2018-09-06T01:39:16.492Z,19.30
2018-09-06T01:41:44.881Z,19.20
2018-09-06T01:44:13.262Z,19.20
2018-09-06T01:46:41.649Z,19.20
2018-09-06T01:49:10.044Z,19.20
2018-09-06T01:51:38.410Z,19.20
2018-09-06T01:54:06.790Z,19.10
2018-09-06T01:56:35.257Z,19.10
2018-09-06T01:59:03.661Z,19.10
2018-09-06T02:01:32.045Z,19.10
2018-09-06T02:04:00.530Z,19.00
2018-09-06T02:06:28.965Z,19.10
2018-09-06T02:08:58.331Z,19.10
2018-09-06T02:11:26.703Z,19.00
2018-09-06T02:13:55.184Z,19.00
2018-09-06T02:16:23.558Z,19.10
2018-09-06T02:18:52.099Z,19.10
2018-09-06T02:21:20.496Z,19.00
2018-09-06T02:23:49.714Z,19.00
2018-09-06T02:26:18.053Z,19.00
2018-09-06T02:28:46.485Z,19.10
2018-09-06T02:31:14.884Z,19.10
2018-09-06T02:33:43.265Z,19.10
2018-09-06T02:36:11.670Z,19.10
2018-09-06T02:38:40.040Z,19.10
2018-09-06T02:41:09.448Z,19.00
2018-09-06T02:43:37.833Z,18.90
2018-09-06T02:46:06.452Z,18.90
2018-09-06T02:48:42.576Z,18.90
2018-09-06T02:51:15.253Z,18.90
2018-09-06T02:53:43.847Z,18.90
2018-09-06T02:56:13.036Z,18.90
2018-09-06T02:58:41.422Z,18.90
2018-09-06T03:01:10.122Z,18.80
2018-09-06T03:03:38.565Z,18.80
2018-09-06T03:06:07.477Z,18.80
2018-09-06T03:08:35.869Z,18.80
2018-09-06T03:11:15.060Z,18.80
2018-09-06T03:13:43.461Z,18.80
2018-09-06T03:16:11.897Z,18.70
2018-09-06T03:18:40.275Z,18.80
2018-09-06T03:21:08.725Z,18.80
2018-09-06T03:23:37.149Z,18.80
2018-09-06T03:26:09.769Z,18.80
2018-09-06T03:28:38.160Z,18.70
2018-09-06T03:31:06.537Z,18.70
2018-09-06T03:33:34.966Z,18.70
2018-09-06T03:36:03.605Z,18.70
2018-09-06T03:38:32.019Z,18.70
2018-09-06T03:41:00.481Z,18.70
2018-09-06T03:43:28.894Z,18.60
2018-09-06T03:45:57.378Z,18.60
2018-09-06T03:48:25.859Z,18.60
2018-09-06T03:50:54.277Z,18.60
2018-09-06T03:53:22.705Z,18.60
2018-09-06T03:55:51.182Z,18.60
2018-09-06T03:58:20.477Z,18.60
2018-09-06T04:00:49.371Z,18.60
2018-09-06T04:03:17.940Z,18.60
2018-09-06T04:05:46.527Z,18.60
2018-09-06T04:08:14.920Z,18.60
2018-09-06T04:10:43.354Z,18.50
2018-09-06T04:13:11.769Z,18.60
2018-09-06T04:15:40.247Z,18.60
2018-09-06T04:18:08.600Z,18.50
2018-09-06T04:20:37.006Z,18.50
2018-09-06T04:23:05.421Z,18.50
2018-09-06T04:25:34.153Z,18.50
2018-09-06T04:28:02.549Z,18.40
2018-09-06T04:30:30.958Z,18.40
2018-09-06T04:32:59.293Z,18.40
2018-09-06T04:35:27.762Z,18.40
2018-09-06T04:37:56.097Z,18.50
2018-09-06T04:40:24.485Z,18.40
2018-09-06T04:42:52.871Z,18.50
2018-09-06T04:45:21.277Z,18.50
2018-09-06T04:47:49.804Z,18.50
2018-09-06T04:50:18.274Z,18.50
2018-09-06T04:52:46.691Z,18.40
2018-09-06T04:55:15.498Z,18.40
2018-09-06T04:57:43.821Z,18.40
2018-09-06T05:00:12.278Z,18.40
2018-09-06T05:02:40.685Z,18.40
2018-09-06T05:05:09.049Z,18.40
2018-09-06T05:07:37.446Z,18.50
2018-09-06T05:10:06.344Z,18.50
2018-09-06T05:12:34.792Z,18.40
2018-09-06T05:15:03.197Z,18.40
2018-09-06T05:17:32.285Z,18.40
2018-09-06T05:20:00.665Z,18.40
2018-09-06T05:22:29.112Z,18.40
2018-09-06T05:24:57.596Z,18.40
2018-09-06T05:27:25.987Z,18.30
2018-09-06T05:29:54.398Z,18.30
2018-09-06T05:32:24.609Z,18.30
2018-09-06T05:34:53.061Z,18.30
2018-09-06T05:37:21.422Z,18.30
2018-09-06T05:39:49.773Z,18.30
2018-09-06T05:42:18.191Z,18.30
2018-09-06T05:44:46.569Z,18.20
2018-09-06T05:47:14.951Z,18.30
2018-09-06T05:49:43.430Z,18.30
2018-09-06T05:52:11.801Z,18.20
2018-09-06T05:54:40.237Z,18.30
2018-09-06T05:57:08.635Z,18.30
2018-09-06T05:59:37.070Z,18.40
2018-09-06T06:02:05.462Z,18.40
2018-09-06T06:04:33.860Z,18.40
2018-09-06T06:07:02.265Z,18.40
2018-09-06T06:09:30.650Z,18.40
2018-09-06T06:11:59.181Z,18.40
2018-09-06T06:14:27.529Z,18.30
2018-09-06T06:16:56.004Z,18.30
2018-09-06T06:19:24.414Z,18.40
2018-09-06T06:21:52.860Z,18.40
2018-09-06T06:24:21.278Z,18.40
2018-09-06T06:26:50.248Z,18.40
2018-09-06T06:29:18.696Z,18.50
2018-09-06T06:31:47.147Z,18.50
2018-09-06T06:34:15.504Z,18.50
2018-09-06T06:36:44.133Z,18.50
2018-09-06T06:39:13.525Z,18.50
2018-09-06T06:41:41.938Z,18.50
2018-09-06T06:44:10.863Z,18.50
2018-09-06T06:46:39.341Z,18.60
2018-09-06T06:49:07.915Z,18.60
2018-09-06T06:51:36.298Z,18.60
2018-09-06T06:54:04.707Z,18.70
2018-09-06T06:56:33.125Z,18.70
2018-09-06T06:59:01.559Z,18.80
2018-09-06T07:01:29.925Z,18.70
2018-09-06T07:03:58.317Z,18.80
2018-09-06T07:06:26.732Z,18.80
2018-09-06T07:08:55.118Z,18.80
2018-09-06T07:11:23.478Z,18.80
2018-09-06T07:13:51.886Z,18.80
2018-09-06T07:16:20.745Z,18.90
2018-09-06T07:18:49.157Z,18.90
2018-09-06T07:21:17.598Z,18.90
2018-09-06T07:23:45.953Z,18.90
2018-09-06T07:26:14.354Z,18.80
2018-09-06T07:28:42.766Z,18.80
2018-09-06T07:31:11.141Z,18.70
2018-09-06T07:33:39.661Z,18.80
2018-09-06T07:36:08.090Z,18.80
2018-09-06T07:38:36.500Z,18.90
2018-09-06T07:41:05.020Z,18.90
2018-09-06T07:43:33.417Z,18.80
2018-09-06T07:46:01.836Z,18.80
2018-09-06T07:48:30.273Z,18.80
2018-09-06T07:50:58.665Z,18.80
2018-09-06T07:53:27.053Z,18.80
2018-09-06T07:55:55.698Z,18.80
2018-09-06T07:58:29.676Z,18.80
2018-09-06T08:00:58.244Z,18.90
2018-09-06T08:03:26.776Z,19.00
2018-09-06T08:05:55.181Z,19.00
2018-09-06T08:08:23.518Z,19.00
2018-09-06T08:10:51.930Z,19.00
2018-09-06T08:13:20.289Z,19.00
2018-09-06T08:15:48.663Z,19.00
2018-09-06T08:18:17.069Z,18.90
2018-09-06T08:20:45.469Z,18.90
2018-09-06T08:23:13.977Z,18.80
2018-09-06T08:25:42.370Z,18.90
2018-09-06T08:28:10.798Z,18.90
2018-09-06T08:30:39.260Z,18.90
2018-09-06T08:33:07.636Z,18.80
2018-09-06T08:35:36.023Z,18.80
2018-09-06T08:38:04.438Z,18.80
2018-09-06T08:40:32.798Z,18.80
2018-09-06T08:43:01.313Z,18.70
2018-09-06T08:45:29.747Z,18.80
2018-09-06T08:47:58.051Z,18.90
2018-09-06T08:50:26.473Z,18.90
2018-09-06T08:52:55.889Z,19.00
2018-09-06T08:55:24.277Z,19.10
2018-09-06T08:57:52.681Z,19.20
2018-09-06T09:00:21.328Z,19.10
2018-09-06T09:02:49.961Z,19.20
2018-09-06T09:05:18.333Z,19.20
2018-09-06T09:07:46.780Z,19.30
2018-09-06T09:10:15.189Z,19.40
2018-09-06T09:12:43.568Z,19.40
2018-09-06T09:15:11.977Z,19.50
2018-09-06T09:17:40.387Z,19.50
2018-09-06T09:20:15.405Z,19.30
2018-09-06T09:22:43.825Z,19.10
2018-09-06T09:25:12.252Z,19.10
2018-09-06T09:27:40.731Z,19.30
2018-09-06T09:30:09.142Z,19.50
2018-09-06T09:32:37.608Z,19.80
2018-09-06T09:35:06.045Z,20.10
2018-09-06T09:37:34.476Z,20.10
2018-09-06T09:40:03.104Z,20.20
2018-09-06T09:42:31.677Z,20.20
2018-09-06T09:45:00.199Z,20.10
2018-09-06T09:49:56.422Z,20.30
2018-09-06T09:52:24.812Z,20.30
2018-09-06T09:54:53.227Z,20.10
2018-09-06T09:57:21.617Z,20.10
2018-09-06T09:59:50.805Z,20.20
2018-09-06T10:02:24.698Z,20.40
2018-09-06T10:04:55.101Z,20.50
2018-09-06T10:07:28.968Z,20.70
2018-09-06T10:09:57.361Z,20.80
2018-09-06T10:12:25.853Z,21.10
2018-09-06T10:14:54.356Z,21.40
2018-09-06T10:17:22.765Z,21.40
2018-09-06T10:19:51.167Z,21.40
2018-09-06T10:22:19.644Z,21.40
2018-09-06T10:24:48.108Z,21.50
2018-09-06T10:27:16.725Z,21.60
2018-09-06T10:29:45.149Z,21.60
2018-09-06T10:32:13.547Z,21.60
2018-09-06T10:34:42.205Z,21.60
2018-09-06T10:37:10.638Z,21.50
2018-09-06T10:39:39.154Z,21.40
2018-09-06T10:42:07.604Z,21.40
2018-09-06T10:44:36.002Z,21.30
2018-09-06T10:47:04.396Z,21.30
2018-09-06T10:49:32.894Z,21.20
2018-09-06T10:52:01.298Z,21.20
2018-09-06T10:54:29.773Z,21.50
2018-09-06T10:56:58.190Z,21.50
2018-09-06T10:59:26.883Z,21.50
2018-09-06T11:01:55.346Z,21.40
2018-09-06T11:04:25.269Z,21.50
2018-09-06T11:06:53.760Z,21.50
2018-09-06T11:09:22.221Z,21.50
2018-09-06T11:11:50.804Z,21.60
2018-09-06T11:14:19.252Z,21.50
2018-09-06T11:16:47.702Z,21.40
2018-09-06T11:19:16.159Z,21.30
2018-09-06T11:21:45.277Z,21.20
2018-09-06T11:24:13.564Z,21.20
2018-09-06T11:26:41.975Z,21.10
2018-09-06T11:29:10.428Z,20.90
2018-09-06T11:31:38.876Z,20.90
2018-09-06T11:34:07.406Z,21.00
2018-09-06T11:36:35.878Z,21.20
2018-09-06T11:39:06.257Z,21.30
2018-09-06T11:41:34.666Z,21.40
2018-09-06T11:44:03.066Z,21.50
2018-09-06T11:46:31.501Z,21.50
2018-09-06T11:48:59.989Z,21.40
2018-09-06T11:51:28.684Z,21.30
2018-09-06T11:53:57.153Z,21.20
2018-09-06T11:56:25.614Z,21.20
2018-09-06T11:58:54.039Z,21.20
2018-09-06T12:01:22.433Z,21.40
2018-09-06T12:03:50.909Z,21.70
2018-09-06T12:06:19.341Z,21.90
2018-09-06T12:08:47.805Z,22.20
2018-09-06T12:11:16.249Z,22.60
2018-09-06T12:13:44.635Z,23.00
2018-09-06T12:16:14.518Z,22.90
2018-09-06T12:18:42.958Z,22.80
2018-09-06T12:21:14.960Z,22.50
2018-09-06T12:23:44.488Z,22.40
2018-09-06T12:26:13.765Z,22.30
2018-09-06T12:28:43.521Z,22.10
2018-09-06T12:31:13.910Z,22.10
2018-09-06T12:33:45.088Z,22.10
2018-09-06T12:36:14.922Z,22.10
2018-09-06T12:38:44.371Z,22.00
2018-09-06T12:41:14.211Z,21.90
2018-09-06T12:43:43.715Z,21.90
2018-09-06T12:46:13.196Z,21.90
2018-09-06T12:48:43.378Z,21.70
2018-09-06T12:51:12.390Z,21.60
2018-09-06T12:53:41.038Z,21.60
2018-09-06T12:56:09.535Z,21.60
2018-09-06T12:58:38.618Z,21.50
2018-09-06T13:01:07.428Z,21.40
2018-09-06T13:03:35.859Z,21.50
2018-09-06T13:06:04.244Z,21.50
2018-09-06T13:08:32.582Z,21.60
2018-09-06T13:11:01.102Z,21.60
2018-09-06T13:13:29.593Z,21.70
2018-09-06T13:15:57.963Z,21.70
2018-09-06T13:18:26.591Z,21.80
2018-09-06T13:20:55.124Z,21.90
2018-09-06T13:23:23.744Z,21.90
2018-09-06T14:00:07.546Z,23.40
2018-09-06T14:02:35.993Z,23.40
2018-09-06T14:05:04.854Z,23.40
2018-09-06T14:07:33.311Z,23.20
2018-09-06T14:10:02.288Z,23.30
2018-09-06T14:12:30.775Z,23.40
2018-09-06T14:14:59.247Z,23.70
2018-09-06T14:17:27.668Z,23.80
2018-09-06T14:19:56.077Z,23.80
2018-09-06T14:22:24.570Z,23.60
2018-09-06T14:24:53.055Z,23.30
2018-09-06T14:27:21.509Z,23.00
2018-09-06T14:29:50.292Z,23.20
2018-09-06T14:32:18.722Z,23.30
2018-09-06T14:34:47.176Z,23.40
2018-09-06T14:37:15.623Z,23.10
2018-09-06T14:39:44.221Z,22.80
2018-09-06T14:42:13.201Z,22.50
2018-09-06T14:44:41.638Z,22.40
2018-09-06T14:47:10.059Z,22.30
2018-09-06T14:49:38.547Z,22.40
2018-09-06T14:52:07.005Z,22.60
2018-09-06T14:54:35.513Z,22.80
2018-09-06T14:57:04.142Z,22.90
2018-09-06T14:59:32.537Z,22.80
2018-09-06T15:02:01.039Z,22.70
2018-09-06T15:04:29.476Z,22.50
2018-09-06T15:06:57.929Z,22.40
2018-09-06T15:09:26.386Z,22.60
2018-09-06T15:11:55.576Z,22.50
2018-09-06T15:14:24.437Z,22.30
2018-09-06T15:16:53.958Z,22.30
2018-09-06T15:19:22.479Z,22.40
2018-09-06T15:21:50.933Z,22.20
2018-09-06T15:24:20.016Z,22.20
2018-09-06T15:26:50.141Z,22.10
2018-09-06T15:29:18.812Z,22.10
2018-09-06T15:31:47.266Z,22.00
2018-09-06T15:34:15.860Z,21.90
2018-09-06T15:36:44.674Z,21.70
2018-09-06T15:39:13.656Z,21.60
2018-09-06T15:41:42.504Z,21.50
2018-09-06T15:44:11.227Z,21.40
2018-09-06T15:46:39.803Z,21.40
2018-09-06T15:49:08.492Z,21.40
2018-09-06T15:51:37.236Z,21.40
2018-09-06T15:54:06.177Z,21.40
2018-09-06T15:56:34.956Z,21.50
2018-09-06T15:59:03.578Z,21.50
2018-09-06T16:01:32.167Z,21.40
2018-09-06T16:04:01.766Z,21.30
2018-09-06T16:06:30.248Z,21.10
2018-09-06T16:08:59.050Z,21.00
2018-09-06T16:11:27.986Z,20.80
2018-09-06T16:13:56.911Z,20.80
2018-09-06T16:21:20.221Z,20.80
2018-09-06T16:23:48.711Z,20.80
2018-09-06T16:26:17.236Z,20.70
2018-09-06T16:28:45.851Z,20.60
2018-09-06T16:31:14.288Z,20.60
2018-09-06T16:33:42.906Z,20.70
2018-09-06T16:36:11.340Z,20.60
2018-09-06T16:38:39.784Z,20.60
2018-09-06T16:41:08.237Z,20.50
2018-09-06T16:43:36.921Z,20.40
2018-09-06T16:46:05.382Z,20.30
2018-09-06T16:48:34.053Z,20.40
2018-09-06T16:51:02.499Z,20.40
2018-09-06T16:53:31.048Z,20.60
2018-09-06T16:55:59.562Z,20.60
2018-09-06T16:58:28.031Z,20.50
2018-09-06T17:00:56.495Z,20.50
2018-09-06T17:03:24.884Z,20.50
2018-09-06T17:05:53.502Z,20.40
2018-09-06T17:08:21.913Z,20.30
2018-09-06T17:10:50.399Z,20.30
2018-09-06T17:13:19.465Z,20.20
2018-09-06T17:15:47.909Z,20.20
2018-09-06T17:18:16.397Z,20.00
2018-09-06T17:20:44.946Z,20.00
2018-09-06T17:23:13.859Z,19.90
2018-09-06T17:25:42.341Z,19.80
2018-09-06T17:28:10.842Z,19.70
2018-09-06T17:30:39.325Z,19.70
2018-09-06T17:33:08.819Z,19.60
2018-09-06T17:35:37.428Z,19.50
2018-09-06T17:38:05.887Z,19.50
2018-09-06T17:40:34.340Z,19.50
2018-09-06T17:43:02.862Z,19.50
2018-09-06T17:45:31.279Z,19.50
2018-09-06T17:47:59.708Z,19.40
2018-09-06T17:50:28.988Z,19.40
2018-09-06T17:52:57.495Z,19.30
2018-09-06T17:55:27.095Z,19.30
2018-09-06T17:57:55.550Z,19.30
2018-09-06T18:00:24.048Z,19.20
2018-09-06T18:02:52.502Z,19.20
2018-09-06T18:05:20.946Z,19.20
2018-09-06T18:07:49.444Z,19.20
2018-09-06T18:10:17.932Z,19.10
2018-09-06T18:12:46.636Z,19.10
2018-09-06T18:15:15.151Z,19.00
2018-09-06T18:17:43.687Z,18.90
2018-09-06T18:20:12.070Z,18.90
2018-09-06T18:22:40.563Z,18.90
2018-09-06T18:25:09.038Z,19.00
2018-09-06T18:27:37.569Z,19.00
2018-09-06T18:30:06.256Z,19.00
2018-09-06T18:32:34.735Z,19.00
2018-09-06T18:35:03.164Z,19.00
2018-09-06T18:37:31.763Z,19.00
2018-09-06T18:40:00.177Z,19.00
2018-09-06T18:42:28.611Z,19.00
2018-09-06T18:44:57.183Z,19.00
2018-09-06T18:47:25.672Z,18.90
2018-09-06T18:49:54.282Z,18.90
2018-09-06T18:52:22.752Z,18.90
2018-09-06T18:54:51.193Z,18.90
2018-09-06T18:57:19.668Z,18.90
2018-09-06T18:59:48.089Z,18.80
2018-09-06T19:02:16.526Z,18.70
2018-09-06T19:04:45.020Z,18.60
2018-09-06T19:07:13.437Z,18.60
2018-09-06T19:09:41.891Z,18.60
2018-09-06T19:12:10.483Z,18.50
2018-09-06T19:14:38.963Z,18.40
2018-09-06T19:17:07.429Z,18.40
2018-09-06T19:19:35.854Z,18.40
2018-09-06T19:22:04.480Z,18.40
2018-09-06T19:24:32.927Z,18.40
2018-09-06T19:27:01.347Z,18.40
2018-09-06T19:29:30.301Z,18.30
2018-09-06T19:31:59.078Z,18.20
2018-09-06T19:34:27.571Z,18.20
2018-09-06T19:36:56.348Z,18.20
2018-09-06T19:39:25.797Z,18.10
2018-09-06T19:41:54.341Z,18.10
2018-09-06T19:44:22.851Z,18.00
2018-09-06T19:46:51.337Z,18.00
2018-09-06T19:49:19.885Z,17.90
2018-09-06T19:51:48.456Z,17.90
2018-09-06T19:54:17.138Z,17.90
2018-09-06T19:56:45.675Z,17.90
2018-09-06T19:59:14.380Z,17.80
2018-09-06T20:01:43.011Z,17.70
2018-09-06T20:04:11.616Z,17.70
2018-09-06T20:06:40.124Z,17.70
2018-09-06T20:09:09.004Z,17.60
2018-09-06T20:11:37.637Z,17.60
2018-09-06T20:14:06.273Z,17.60
2018-09-06T20:16:34.855Z,17.60
2018-09-06T20:19:03.302Z,17.50
2018-09-06T20:21:31.753Z,17.50
2018-09-06T20:24:00.344Z,17.50
2018-09-06T20:26:28.873Z,17.50
2018-09-06T20:31:57.851Z,17.40
2018-09-06T20:34:26.264Z,17.30
2018-09-06T20:36:54.781Z,17.20
2018-09-06T20:39:23.285Z,17.20
2018-09-06T20:41:51.802Z,17.20
2018-09-06T20:44:20.207Z,17.20
2018-09-06T20:46:48.685Z,17.30
2018-09-06T20:49:17.147Z,17.20
2018-09-06T20:51:45.587Z,17.20
2018-09-06T20:54:14.393Z,17.10
2018-09-06T20:56:42.880Z,17.10
2018-09-06T20:59:11.516Z,17.00
2018-09-06T21:01:39.954Z,16.90
2018-09-06T21:04:08.384Z,16.90
2018-09-06T21:06:36.995Z,16.90
2018-09-06T21:09:06.417Z,16.90
2018-09-06T21:11:35.005Z,16.90
2018-09-06T21:14:03.532Z,16.90
2018-09-06T21:16:31.999Z,16.80
2018-09-06T21:19:00.500Z,16.80
2018-09-06T21:21:29.099Z,16.80
2018-09-06T21:23:57.523Z,16.70
2018-09-06T21:26:26.275Z,16.70
2018-09-06T21:28:54.811Z,16.60
2018-09-06T21:31:23.412Z,16.70
2018-09-06T21:33:51.885Z,16.70
2018-09-06T21:36:20.353Z,16.60
2018-09-06T21:38:48.767Z,16.60
2018-09-06T21:41:17.271Z,16.60
2018-09-06T21:43:45.685Z,16.60
2018-09-06T21:46:14.111Z,16.60
2018-09-06T21:48:42.526Z,16.50
2018-09-06T21:51:10.969Z,16.50
2018-09-06T21:53:39.407Z,16.40
2018-09-06T21:56:07.873Z,16.40
2018-09-06T21:58:36.340Z,16.40
2018-09-06T22:01:04.794Z,16.40
2018-09-06T22:03:38.634Z,16.40
2018-09-06T22:06:07.125Z,16.30
2018-09-06T22:08:35.544Z,16.30
2018-09-06T22:11:04.043Z,16.30
2018-09-06T22:13:32.509Z,16.20
2018-09-06T22:16:01.013Z,16.00
2018-09-06T22:18:29.533Z,16.00
2018-09-06T22:20:58.010Z,15.90
2018-09-06T22:23:26.408Z,15.80
2018-09-06T22:25:54.938Z,15.80
2018-09-06T22:28:23.483Z,15.70
2018-09-06T22:30:51.920Z,15.60
2018-09-06T22:33:20.341Z,15.60
2018-09-06T22:35:48.815Z,15.50
2018-09-06T22:38:17.251Z,15.50
2018-09-06T22:40:45.803Z,15.50
2018-09-06T22:43:14.202Z,15.40
2018-09-06T22:45:42.613Z,15.50
2018-09-06T22:48:11.057Z,15.40
2018-09-06T22:50:39.589Z,15.30
2018-09-06T22:53:08.083Z,15.30
2018-09-06T22:55:36.484Z,15.20
2018-09-06T22:58:04.948Z,15.10
2018-09-06T23:00:33.395Z,15.10
2018-09-06T23:03:07.343Z,15.10
2018-09-06T23:05:35.814Z,15.10
2018-09-06T23:08:04.355Z,15.20
2018-09-06T23:10:32.833Z,15.20
2018-09-06T23:13:01.324Z,15.20
2018-09-06T23:15:29.787Z,15.20
2018-09-06T23:18:05.666Z,15.20
2018-09-06T23:20:34.131Z,15.30
2018-09-06T23:23:02.648Z,15.30
2018-09-06T23:25:31.054Z,15.30
2018-09-06T23:27:59.481Z,15.30
2018-09-06T23:30:27.927Z,15.30
2018-09-06T23:32:56.339Z,15.30
2018-09-06T23:35:24.777Z,15.30
2018-09-06T23:37:53.200Z,15.30
2018-09-06T23:40:22.275Z,15.30
2018-09-06T23:42:50.712Z,15.20
2018-09-06T23:45:19.126Z,15.20
2018-09-06T23:47:47.548Z,15.20
2018-09-06T23:50:16.001Z,15.10
2018-09-06T23:52:44.445Z,15.10
2018-09-06T23:55:12.841Z,15.00
2018-09-06T23:57:41.294Z,14.90
